ADDS METAR Data INFO
IDs: Format: Raw Decoded Include TAF

Data at: 0202 UTC 17 Oct 2017

KGCD 170155Z AUTO 00000KT 10SM CLR 17/M01 A3021 RMK AO2 T01671010
KGCD 170135Z AUTO 00000KT 10SM CLR 16/M01 A3021 RMK AO2 T01621006
KGCD 170115Z AUTO 00000KT 10SM CLR 17/00 A3021 RMK AO2 T01701002
KGCD 170055Z AUTO 22003KT 10SM CLR 18/00 A3021 RMK AO2 T01800000
KGCD 170035Z AUTO 22003KT 10SM CLR 19/00 A3021 RMK AO2 T01880000
KGCD 170015Z AUTO 23003KT 10SM CLR 20/00 A3021 RMK AO2 T02011005
KGCD 162355Z AUTO 25003KT 10SM CLR 21/00 A3022 RMK AO2 T02061003 10215 20120
KGCD 162335Z AUTO 29004KT 10SM CLR 21/M01 A3022 RMK AO2 T02101007
KGCD 162315Z AUTO 00000KT 10SM CLR 21/M01 A3022 RMK AO2 T02111013
KGCD 162255Z AUTO 00000KT 10SM CLR 21/M01 A3023 RMK AO2 T02131014
KGCD 162235Z AUTO 00000KT 10SM CLR 21/M01 A3023 RMK AO2 T02131015
KGCD 162215Z AUTO 30003KT 10SM CLR 21/M02 A3023 RMK AO2 T02101021
KGCD 162155Z AUTO 00000KT 10SM CLR 20/M03 A3024 RMK AO2 T02031026
KGCD 162135Z AUTO 00000KT 10SM CLR 20/M03 A3024 RMK AO2 T02011030
KGCD 162115Z AUTO 00000KT 10SM CLR 20/M03 A3025 RMK AO2 T01981031
KGCD 162055Z AUTO 05003KT 10SM CLR 19/M03 A3025 RMK AO2 T01901032
KGCD 162035Z AUTO 05004KT 10SM CLR 18/M03 A3026 RMK AO2 T01791035
KGCD 162015Z AUTO 00000KT 10SM CLR 18/M04 A3027 RMK AO2 T01831039
KGCD 161955Z AUTO 00000KT 10SM CLR 18/M05 A3028 RMK AO2 T01771048
KGCD 161935Z AUTO 00000KT 10SM CLR 17/M03 A3029 RMK AO2 T01701033
KGCD 161915Z AUTO 05003KT 10SM CLR 16/M03 A3030 RMK AO2 T01611031
KGCD 161855Z AUTO 08004KT 10SM CLR 16/M03 A3030 RMK AO2 T01571033
KGCD 161835Z AUTO 06005KT 10SM CLR 15/M04 A3030 RMK AO2 T01451036
KGCD 161815Z AUTO 07007KT 10SM CLR 13/M04 A3031 RMK AO2 T01341039
KGCD 161755Z AUTO 06005KT 10SM CLR 12/M04 A3032 RMK AO2 T01201041 10121 20022
KGCD 161735Z AUTO 07004KT 10SM CLR 11/M04 A3032 RMK AO2 T01061036
KGCD 161715Z AUTO 09006KT 10SM CLR 09/M03 A3033 RMK AO2 T00911032
KGCD 161655Z AUTO 08007KT 10SM CLR 08/M02 A3033 RMK AO2 T00831025
KGCD 161635Z AUTO 09007KT 10SM CLR 07/M03 A3033 RMK AO2 T00741026
KGCD 161615Z AUTO 10007KT 10SM CLR 07/M02 A3034 RMK AO2 T00651025
KGCD 161555Z AUTO 12005KT 10SM CLR 06/M03 A3034 RMK AO2 T00621030
KGCD 161535Z AUTO 12007KT 10SM CLR 05/M03 A3034 RMK AO2 T00491031
KGCD 161515Z AUTO 12007KT 10SM CLR 05/M03 A3033 RMK AO2 T00471031
KGCD 161455Z AUTO 13009KT 10SM CLR 04/M03 A3033 RMK AO2 T00431033
KGCD 161435Z AUTO 12008KT 10SM CLR 04/M03 A3032 RMK AO2 T00361035
KGCD 161415Z AUTO 11007KT 10SM CLR 03/M03 A3032 RMK AO2 T00321035
KGCD 161355Z AUTO 12007KT 10SM CLR 04/M04 A3032 RMK AO2 T00351036
KGCD 161335Z AUTO 12008KT 10SM CLR 04/M03 A3031 RMK AO2 T00351035
KGCD 161315Z AUTO 11007KT 10SM CLR 02/M03 A3031 RMK AO2 T00231035
KGCD 161255Z AUTO 11008KT 10SM CLR 03/M03 A3031 RMK AO2 T00271034
KGCD 161235Z AUTO 10009KT 10SM CLR 03/M03 A3031 RMK AO2 T00301033
KGCD 161215Z AUTO 11008KT 10SM CLR 03/M03 A3031 RMK AO2 T00271032
KGCD 161155Z AUTO 12008KT 10SM CLR 03/M03 A3031 RMK AO2 T00291032 10052 20028
KGCD 161135Z AUTO 12007KT 10SM CLR 04/M03 A3032 RMK AO2 T00371035
KGCD 161115Z AUTO 13007KT 10SM CLR 04/M03 A3032 RMK AO2 T00401034
KGCD 161055Z AUTO 11007KT 10SM CLR 03/M03 A3032 RMK AO2 T00331033
KGCD 161035Z AUTO 11007KT 10SM CLR 03/M03 A3032 RMK AO2 T00301033
KGCD 161015Z AUTO 12008KT 10SM CLR 04/M03 A3032 RMK AO2 T00371033
KGCD 160955Z AUTO 11008KT 10SM CLR 04/M03 A3033 RMK AO2 T00351031
KGCD 160935Z AUTO 11008KT 10SM CLR 04/M03 A3033 RMK AO2 T00401032
KGCD 160915Z AUTO 12006KT 10SM CLR 04/M03 A3033 RMK AO2 T00351031
KGCD 160855Z AUTO 10007KT 10SM CLR 04/M03 A3032 RMK AO2 T00351031
KGCD 160835Z AUTO 11007KT 10SM CLR 04/M03 A3032 RMK AO2 T00441031
KGCD 160815Z AUTO 13007KT 10SM CLR 04/M03 A3032 RMK AO2 T00431032
KGCD 160755Z AUTO 10008KT 10SM CLR 04/M03 A3032 RMK AO2 T00441031 401630000
KGCD 160735Z AUTO 13007KT 10SM CLR 05/M03 A3032 RMK AO2 T00461031
KGCD 160715Z AUTO 12006KT 10SM CLR 05/M03 A3032 RMK AO2 T00461031
KGCD 160655Z AUTO 12006KT 10SM CLR 05/M03 A3033 RMK AO2 T00451030
KGCD 160635Z AUTO 13005KT 10SM CLR 05/M03 A3033 RMK AO2 T00471030
KGCD 160615Z AUTO 11006KT 10SM CLR 05/M03 A3033 RMK AO2 T00471028
KGCD 160555Z AUTO 12007KT 10SM CLR 05/M03 A3033 RMK AO2 T00521027 10154 20052
KGCD 160535Z AUTO 13005KT 10SM CLR 06/M03 A3033 RMK AO2 T00581030
KGCD 160515Z AUTO 11006KT 10SM CLR 06/M03 A3034 RMK AO2 T00571027
KGCD 160455Z AUTO 13005KT 10SM CLR 07/M03 A3033 RMK AO2 T00731035
KGCD 160435Z AUTO 11005KT 10SM CLR 10/M04 A3033 RMK AO2 T01041045
KGCD 160415Z AUTO 00000KT 10SM CLR 09/M03 A3033 RMK AO2 T00871035
KGCD 160355Z AUTO 09004KT 10SM CLR 09/M03 A3032 RMK AO2 T00881033
KGCD 160335Z AUTO 12006KT 10SM CLR 09/M03 A3032 RMK AO2 T00851033
KGCD 160315Z AUTO 10005KT 10SM CLR 09/M03 A3032 RMK AO2 T00941035
KGCD 160255Z AUTO 13004KT 10SM CLR 11/M04 A3032 RMK AO2 T01051042
KGCD 160235Z AUTO 15008KT 10SM CLR 11/M04 A3031 RMK AO2 T01131043
KGCD 160215Z AUTO 15013G16KT 10SM CLR 12/M04 A3031 RMK AO2 T01171044
KGCD 160155Z AUTO 16011G17KT 10SM CLR 12/M04 A3030 RMK AO2 T01201043
KGCD 160135Z AUTO 12007KT 10SM CLR 13/M04 A3030 RMK AO2 T01251039
KGCD 160115Z AUTO 15006KT 10SM CLR 13/M04 A3029 RMK AO2 T01261043
KGCD 160055Z AUTO 16004KT 10SM CLR 14/M04 A3029 RMK AO2 T01351044
KGCD 160035Z AUTO 16006KT 10SM CLR 14/M04 A3029 RMK AO2 T01421041
KGCD 160015Z AUTO 00000KT 10SM CLR 15/M04 A3029 RMK AO2 T01511042
KGCD 152355Z AUTO 13003KT 10SM CLR 16/M04 A3029 RMK AO2 T01551043 10163 20095
KGCD 152335Z AUTO 10005KT 10SM CLR 16/M04 A3029 RMK AO2 T01601044
KGCD 152315Z AUTO 00000KT 10SM CLR 16/M04 A3030 RMK AO2 T01621041
KGCD 152255Z AUTO 00000KT 10SM CLR 16/M04 A3031 RMK AO2 T01561044
KGCD 152235Z AUTO 00000KT 10SM CLR 16/M04 A3031 RMK AO2 T01581045
KGCD 152215Z AUTO 02004KT 10SM CLR 16/M04 A3031 RMK AO2 T01591042
KGCD 152155Z AUTO 07005KT 10SM CLR 16/M04 A3032 RMK AO2 T01591040
KGCD 152135Z AUTO 07003KT 10SM CLR 16/M04 A3032 RMK AO2 T01551042
KGCD 152115Z AUTO 09004KT 10SM CLR 15/M04 A3033 RMK AO2 T01531041
KGCD 152055Z AUTO 04005KT 10SM CLR 15/M04 A3034 RMK AO2 T01511037
KGCD 152035Z AUTO 02004KT 10SM CLR 14/M04 A3034 RMK AO2 T01441041
KGCD 152015Z AUTO 06003KT 10SM CLR 14/M04 A3036 RMK AO2 T01421037
KGCD 151955Z AUTO 08005KT 10SM CLR 13/M04 A3036 RMK AO2 T01311041
KGCD 151935Z AUTO 08006KT 10SM CLR 12/M04 A3037 RMK AO2 T01201042
KGCD 151915Z AUTO 09005KT 10SM CLR 12/M04 A3038 RMK AO2 T01231036
KGCD 151855Z AUTO 07006KT 10SM CLR 12/M04 A3039 RMK AO2 T01161040
KGCD 151835Z AUTO 06007KT 10SM CLR 11/M04 A3039 RMK AO2 T01091040
KGCD 151815Z AUTO 06010KT 10SM CLR 10/M05 A3039 RMK AO2 T01011051
KGCD 151755Z AUTO 06007KT 10SM CLR 10/M05 A3040 RMK AO2 T00951047 10095 20000
KGCD 151735Z AUTO 09006KT 10SM CLR 09/M04 A3041 RMK AO2 T00901044
KGCD 151715Z AUTO 09006KT 10SM CLR 08/M03 A3042 RMK AO2 T00751035
KGCD 151655Z AUTO 10006KT 10SM CLR 06/M03 A3043 RMK AO2 T00631029
KGCD 151635Z AUTO 07007KT 10SM CLR 05/M03 A3043 RMK AO2 T00511027
KGCD 151615Z AUTO 08006KT 10SM CLR 04/M03 A3043 RMK AO2 T00441029
KGCD 151555Z AUTO 11006KT 10SM CLR 04/M03 A3044 RMK AO2 T00381029
KGCD 151535Z AUTO 05009KT 10SM CLR 03/M03 A3043 RMK AO2 T00321028
KGCD 151515Z AUTO 08008KT 10SM CLR 02/M03 A3043 RMK AO2 T00231030
KGCD 151455Z AUTO 10009KT 10SM CLR 01/M03 A3043 RMK AO2 T00091032
KGCD 151435Z AUTO 08006KT 10SM CLR 01/M03 A3043 RMK AO2 T00111032
KGCD 151415Z AUTO 10006KT 10SM CLR 01/M03 A3043 RMK AO2 T00061031